Time;durP1;ratioP1;P1;durP2;ratioP2;P2;SDS_P1;SDS_P2;PMS_P1;PMS_P2;Temp;Humidity;BMP_temperature;BMP_pressure;BME280_temperature;BME280_humidity;BME280_pressure;Samples;Min_cycle;Max_cycle;Signal;HPM_P1;HPM_P2
2023/02/27 00:00:18;;;;;;;3.23;2.73;;;3.70;95.20;;;;;;5049879;28;20236;-70
2023/02/27 00:02:47;;;;;;;3.30;2.30;;;3.60;95.30;;;;;;5043168;28;20211;-70
2023/02/27 00:05:13;;;;;;;2.63;2.43;;;3.60;95.30;;;;;;5051496;28;20441;-71
2023/02/27 00:07:39;;;;;;;3.27;2.90;;;3.60;95.40;;;;;;5049036;28;20453;-70
2023/02/27 00:10:06;;;;;;;3.50;2.50;;;3.50;95.60;;;;;;5047656;28;20793;-71
2023/02/27 00:12:42;;;;;;;3.00;2.70;;;3.50;95.60;;;;;;5051072;28;20684;-71
2023/02/27 00:15:15;;;;;;;4.90;2.97;;;3.50;95.80;;;;;;5049037;28;20467;-71
2023/02/27 00:17:41;;;;;;;2.80;2.50;;;3.60;95.80;;;;;;5047494;28;20492;-71
2023/02/27 00:20:11;;;;;;;6.40;3.17;;;3.50;95.80;;;;;;5050575;28;20452;-71
2023/02/27 00:22:38;;;;;;;3.17;2.50;;;3.50;95.90;;;;;;5049569;28;20461;-71
2023/02/27 00:25:04;;;;;;;3.63;2.53;;;3.50;96.00;;;;;;5055012;28;20541;-70
2023/02/27 00:27:31;;;;;;;2.50;2.17;;;3.50;96.00;;;;;;5055832;28;21052;-71
2023/02/27 00:29:57;;;;;;;3.40;2.70;;;3.50;96.20;;;;;;5051073;28;20449;-71
2023/02/27 00:32:23;;;;;;;2.93;2.40;;;3.50;96.30;;;;;;5054253;28;20868;-70
2023/02/27 00:34:48;;;;;;;3.90;2.50;;;3.50;96.20;;;;;;5054549;28;20441;-71
2023/02/27 00:37:14;;;;;;;4.30;2.93;;;3.50;96.10;;;;;;5047326;28;20207;-70
2023/02/27 00:39:40;;;;;;;2.87;2.57;;;3.50;96.20;;;;;;5051865;28;20191;-70
2023/02/27 00:42:06;;;;;;;6.87;2.70;;;3.50;96.10;;;;;;5051577;28;20819;-71
2023/02/27 00:44:31;;;;;;;3.30;2.60;;;3.50;96.20;;;;;;5055345;28;20365;-71
2023/02/27 00:46:57;;;;;;;3.80;3.00;;;3.50;96.40;;;;;;5049894;28;20872;-70
2023/02/27 00:49:24;;;;;;;3.83;2.70;;;3.50;96.30;;;;;;5056729;28;20178;-71
2023/02/27 00:51:50;;;;;;;2.90;2.60;;;3.50;96.50;;;;;;5055350;28;20183;-71
2023/02/27 00:54:15;;;;;;;2.73;2.33;;;3.50;96.60;;;;;;5056627;28;20577;-70
2023/02/27 00:56:41;;;;;;;3.10;2.37;;;3.40;96.60;;;;;;5052693;28;20838;-71
2023/02/27 00:59:07;;;;;;;3.00;2.70;;;3.40;96.70;;;;;;5050746;28;20188;-71
2023/02/27 01:01:33;;;;;;;2.80;2.50;;;3.40;97.30;;;;;;5050724;28;20219;-70
2023/02/27 01:03:59;;;;;;;4.67;2.60;;;3.40;96.90;;;;;;5048837;28;20442;-70
2023/02/27 01:06:24;;;;;;;3.10;2.80;;;3.30;97.10;;;;;;5053316;28;20671;-70
2023/02/27 01:08:50;;;;;;;2.80;2.60;;;3.40;97.40;;;;;;5051709;28;20313;-70
2023/02/27 01:11:16;;;;;;;3.20;2.90;;;3.40;97.10;;;;;;5052939;28;20262;-70
2023/02/27 01:13:43;;;;;;;5.03;3.20;;;3.40;97.10;;;;;;5053956;28;20266;-70
2023/02/27 01:16:09;;;;;;;3.73;2.73;;;3.30;97.20;;;;;;5049534;28;20682;-69
2023/02/27 01:18:35;;;;;;;3.10;2.80;;;3.30;97.30;;;;;;5052619;28;20429;-70
2023/02/27 01:21:00;;;;;;;5.13;2.57;;;3.30;97.40;;;;;;5050712;28;20486;-70
2023/02/27 01:23:26;;;;;;;5.43;3.07;;;3.30;97.60;;;;;;5056728;28;20581;-70
2023/02/27 01:25:52;;;;;;;4.50;2.50;;;3.30;97.60;;;;;;5048932;28;20183;-70
2023/02/27 01:28:17;;;;;;;3.67;2.80;;;3.40;97.70;;;;;;5049072;28;20780;-69
2023/02/27 01:30:43;;;;;;;3.30;2.93;;;3.40;97.70;;;;;;5053667;28;20675;-70
2023/02/27 01:33:09;;;;;;;6.03;3.47;;;3.40;97.90;;;;;;5053901;28;20183;-70
2023/02/27 01:35:34;;;;;;;5.40;2.77;;;3.40;97.90;;;;;;5051382;28;20183;-70
2023/02/27 01:38:00;;;;;;;4.00;3.60;;;3.30;97.90;;;;;;5047424;28;20215;-70
2023/02/27 01:40:26;;;;;;;3.47;2.40;;;3.40;98.00;;;;;;5049762;28;20183;-70
2023/02/27 01:42:51;;;;;;;3.10;2.50;;;3.40;98.00;;;;;;5049849;28;20468;-70
2023/02/27 01:45:38;;;;;;;4.97;2.40;;;3.40;98.10;;;;;;5049593;28;20188;-69
2023/02/27 01:48:22;;;;;;;3.10;2.70;;;3.30;98.20;;;;;;5052281;28;20203;-72
2023/02/27 01:50:56;;;;;;;4.77;3.03;;;3.30;98.20;;;;;;5047075;28;20571;-71
2023/02/27 01:53:24;;;;;;;2.63;2.23;;;3.40;98.40;;;;;;5051323;28;20554;-71
2023/02/27 01:55:53;;;;;;;3.73;3.10;;;3.40;98.40;;;;;;5046283;28;21222;-71
2023/02/27 01:58:19;;;;;;;3.40;2.83;;;3.30;98.60;;;;;;5050955;28;20460;-71
2023/02/27 02:00:45;;;;;;;6.50;3.00;;;3.30;98.60;;;;;;5049948;28;20441;-71
2023/02/27 02:03:28;;;;;;;3.50;3.20;;;3.30;98.70;;;;;;5053028;28;20974;-71
2023/02/27 02:05:56;;;;;;;2.50;2.30;;;3.20;98.80;;;;;;5049922;28;20441;-72
2023/02/27 02:08:25;;;;;;;3.30;2.30;;;3.20;98.90;;;;;;5052646;28;20446;-72
2023/02/27 02:10:53;;;;;;;2.77;2.47;;;3.20;99.00;;;;;;5050329;28;20461;-71
2023/02/27 02:13:20;;;;;;;5.33;3.00;;;3.20;99.10;;;;;;5051454;28;20465;-71
2023/02/27 02:16:10;;;;;;;5.47;2.97;;;3.20;99.00;;;;;;5046990;28;20513;-71
2023/02/27 02:18:52;;;;;;;5.60;2.97;;;3.10;99.20;;;;;;5026582;28;20437;-71
2023/02/27 02:21:26;;;;;;;3.93;2.70;;;3.10;99.30;;;;;;5050563;28;20572;-71
2023/02/27 02:24:22;;;;;;;4.90;2.43;;;3.20;99.30;;;;;;5052586;28;20457;-71
2023/02/27 02:27:03;;;;;;;4.67;2.93;;;3.20;99.30;;;;;;5048765;28;20455;-70
2023/02/27 02:29:53;;;;;;;3.77;2.90;;;3.20;99.60;;;;;;5049433;28;20432;-70
2023/02/27 02:32:52;;;;;;;3.27;2.60;;;3.10;99.60;;;;;;5050291;28;20479;-70
2023/02/27 02:35:48;;;;;;;3.20;2.90;;;3.10;99.60;;;;;;5049611;28;20498;-70
2023/02/27 02:38:35;;;;;;;3.57;2.83;;;3.10;99.70;;;;;;5051252;28;21010;-70
2023/02/27 02:41:13;;;;;;;7.60;2.70;;;3.10;99.80;;;;;;5049184;28;20433;-70
2023/02/27 02:44:06;;;;;;;5.10;3.50;;;3.10;99.70;;;;;;5051368;28;20483;-70
2023/02/27 02:46:46;;;;;;;5.50;3.00;;;3.10;99.70;;;;;;5050917;28;20469;-70
2023/02/27 02:49:18;;;;;;;6.43;2.70;;;3.10;99.90;;;;;;5048498;28;20906;-71
2023/02/27 02:52:12;;;;;;;3.80;2.97;;;3.00;99.90;;;;;;5048274;28;20469;-70
2023/02/27 02:54:48;;;;;;;4.43;2.40;;;3.00;99.90;;;;;;5048511;28;20845;-70
2023/02/27 02:57:16;;;;;;;4.70;2.90;;;3.00;99.90;;;;;;5049869;28;20453;-69
2023/02/27 02:59:56;;;;;;;4.40;2.60;;;3.10;99.90;;;;;;5062676;28;20433;-69
2023/02/27 03:02:34;;;;;;;5.07;2.63;;;3.10;99.90;;;;;;5051038;28;20471;-69
2023/02/27 03:05:07;;;;;;;3.40;2.87;;;3.00;99.90;;;;;;5050463;28;21654;-69
2023/02/27 03:07:52;;;;;;;3.60;2.83;;;3.00;99.90;;;;;;5047504;28;20555;-69
2023/02/27 03:10:19;;;;;;;3.03;2.50;;;3.00;99.90;;;;;;5049160;28;20438;-70
2023/02/27 03:12:51;;;;;;;5.40;2.87;;;3.00;99.90;;;;;;5043969;28;20469;-71
2023/02/27 03:15:32;;;;;;;5.50;2.83;;;2.90;99.90;;;;;;5049231;28;20946;-71
2023/02/27 03:18:16;;;;;;;3.90;2.60;;;2.90;99.90;;;;;;5044444;28;20511;-69
2023/02/27 03:20:47;;;;;;;3.23;2.60;;;2.90;99.90;;;;;;5052212;28;20503;-69
2023/02/27 03:23:19;;;;;;;4.20;2.70;;;3.00;99.90;;;;;;5049960;28;21071;-69
2023/02/27 03:25:46;;;;;;;5.40;2.90;;;3.00;99.90;;;;;;5049285;28;20510;-70
2023/02/27 03:28:20;;;;;;;2.93;2.70;;;2.90;99.90;;;;;;5048599;28;21224;-70
2023/02/27 03:30:51;;;;;;;4.10;2.87;;;2.90;99.90;;;;;;5040827;28;20450;-70
2023/02/27 03:33:34;;;;;;;4.60;3.30;;;3.00;99.90;;;;;;5051883;28;21043;-70
2023/02/27 03:36:21;;;;;;;4.93;2.90;;;2.90;99.90;;;;;;5050348;28;20495;-70
2023/02/27 03:38:54;;;;;;;3.43;2.77;;;3.00;99.90;;;;;;5045840;28;20436;-71
2023/02/27 03:41:31;;;;;;;3.80;2.80;;;3.00;99.90;;;;;;5052796;28;20777;-70
2023/02/27 03:44:16;;;;;;;5.30;2.97;;;3.00;99.90;;;;;;5051473;28;20448;-69
2023/02/27 03:46:42;;;;;;;4.10;2.63;;;2.90;99.90;;;;;;5053422;28;20485;-69
2023/02/27 03:49:08;;;;;;;4.37;2.67;;;2.90;99.90;;;;;;5052585;28;21150;-70
2023/02/27 03:51:34;;;;;;;3.77;2.50;;;2.90;99.90;;;;;;5051737;28;20302;-70
2023/02/27 03:54:12;;;;;;;4.43;2.67;;;2.90;99.90;;;;;;5051512;28;20183;-70
2023/02/27 03:56:51;;;;;;;4.10;2.80;;;2.80;99.90;;;;;;5050756;28;21172;-70
2023/02/27 03:59:17;;;;;;;6.93;3.20;;;2.90;99.90;;;;;;5049384;28;20432;-70
2023/02/27 04:01:43;;;;;;;5.57;2.60;;;2.90;99.90;;;;;;5049532;28;20954;-70
2023/02/27 04:04:14;;;;;;;3.70;3.13;;;2.90;99.90;;;;;;5051546;28;20456;-70
2023/02/27 04:07:21;;;;;;;3.57;2.60;;;2.90;99.90;;;;;;5045599;28;20464;-69
2023/02/27 04:09:55;;;;;;;4.33;2.97;;;2.90;99.90;;;;;;5050168;28;20506;-69
2023/02/27 04:12:36;;;;;;;4.63;3.57;;;2.80;99.90;;;;;;5046122;28;20836;-71
2023/02/27 04:15:36;;;;;;;2.93;2.40;;;2.80;99.90;;;;;;5045697;28;20541;-70
2023/02/27 04:18:07;;;;;;;3.23;2.53;;;2.80;99.90;;;;;;5046100;28;20865;-70
2023/02/27 04:20:56;;;;;;;3.50;2.60;;;2.80;99.90;;;;;;5051800;28;21803;-70
2023/02/27 04:23:34;;;;;;;3.30;2.50;;;2.80;99.90;;;;;;5051405;28;20445;-70
2023/02/27 04:26:08;;;;;;;2.83;2.20;;;2.80;99.90;;;;;;5046626;28;20461;-70
2023/02/27 04:29:04;;;;;;;5.83;2.40;;;2.70;99.90;;;;;;5048745;28;20940;-71
2023/02/27 04:31:54;;;;;;;4.53;2.63;;;2.80;99.90;;;;;;5049160;28;20431;-71
2023/02/27 04:34:25;;;;;;;6.43;3.40;;;2.80;99.90;;;;;;5049176;28;20467;-71
2023/02/27 04:37:26;;;;;;;5.87;2.87;;;2.80;99.90;;;;;;5049913;28;20461;-71
2023/02/27 04:39:52;;;;;;;4.47;2.33;;;2.80;99.90;;;;;;5041109;28;20473;-70
2023/02/27 04:42:22;;;;;;;3.43;2.43;;;2.70;99.90;;;;;;5052333;28;20476;-70
2023/02/27 04:44:53;;;;;;;5.87;2.67;;;2.70;99.90;;;;;;5049867;28;20472;-70
2023/02/27 04:47:22;;;;;;;6.13;2.80;;;2.70;99.90;;;;;;5046899;28;21283;-68
2023/02/27 04:49:54;;;;;;;5.60;2.37;;;2.70;99.90;;;;;;5049198;28;20463;-68
2023/02/27 04:52:28;;;;;;;7.13;3.57;;;2.70;99.90;;;;;;5048094;28;20615;-68
2023/02/27 04:55:10;;;;;;;4.63;3.20;;;2.70;99.90;;;;;;5045013;28;20459;-69
2023/02/27 04:58:14;;;;;;;4.93;3.13;;;2.70;99.90;;;;;;5053310;28;20535;-70
2023/02/27 05:00:44;;;;;;;6.10;3.00;;;2.70;99.90;;;;;;5053914;28;20552;-70
2023/02/27 05:03:18;;;;;;;9.00;3.17;;;2.70;99.90;;;;;;5051555;28;21079;-71
2023/02/27 05:05:46;;;;;;;4.33;2.67;;;2.70;99.90;;;;;;5050830;28;20475;-70
2023/02/27 05:08:38;;;;;;;4.47;2.63;;;2.70;99.90;;;;;;5047540;28;20432;-70
2023/02/27 05:11:29;;;;;;;3.10;2.80;;;2.70;99.90;;;;;;5048231;28;20456;-70
2023/02/27 05:14:21;;;;;;;3.90;2.90;;;2.70;99.90;;;;;;5049860;28;21029;-70
2023/02/27 05:17:04;;;;;;;4.93;2.80;;;2.70;99.90;;;;;;5042563;28;20481;-70
2023/02/27 05:19:31;;;;;;;3.37;2.60;;;2.70;99.90;;;;;;5052488;28;20484;-70
2023/02/27 05:22:04;;;;;;;7.03;2.87;;;2.60;99.90;;;;;;5052753;28;20464;-70
2023/02/27 05:24:48;;;;;;;4.70;2.83;;;2.60;99.90;;;;;;5050385;28;20453;-70
2023/02/27 05:27:19;;;;;;;3.60;2.50;;;2.60;99.90;;;;;;5053145;28;20987;-70
2023/02/27 05:29:49;;;;;;;5.30;3.20;;;2.50;99.90;;;;;;5055426;28;20447;-71
2023/02/27 05:32:30;;;;;;;4.73;3.20;;;2.50;99.90;;;;;;5051106;28;20620;-71
2023/02/27 05:35:03;;;;;;;3.33;2.93;;;2.50;99.90;;;;;;5051748;28;20438;-69
2023/02/27 05:37:43;;;;;;;2.83;2.50;;;2.50;99.90;;;;;;5054498;28;20914;-69
2023/02/27 05:40:11;;;;;;;3.17;2.63;;;2.50;99.90;;;;;;5051677;28;20909;-69
2023/02/27 05:42:45;;;;;;;3.77;2.83;;;2.50;99.90;;;;;;5055525;28;20857;-69
2023/02/27 05:45:21;;;;;;;3.70;2.70;;;2.60;99.90;;;;;;5047941;28;20454;-68
2023/02/27 05:47:56;;;;;;;4.80;2.80;;;2.60;99.90;;;;;;5052450;28;20527;-69
2023/02/27 05:50:26;;;;;;;4.20;2.90;;;2.60;99.90;;;;;;5050227;28;20440;-69
2023/02/27 05:52:55;;;;;;;7.23;3.10;;;2.60;99.90;;;;;;5049638;28;20461;-69
2023/02/27 05:55:25;;;;;;;6.30;2.87;;;2.60;99.90;;;;;;5050295;28;20447;-69
2023/02/27 05:58:00;;;;;;;6.77;3.50;;;2.60;99.90;;;;;;5049496;28;20496;-69
2023/02/27 06:00:33;;;;;;;3.80;3.00;;;2.60;99.90;;;;;;5050266;28;20432;-69
2023/02/27 06:02:59;;;;;;;4.63;2.90;;;2.60;99.90;;;;;;5050090;28;20477;-69
2023/02/27 06:05:26;;;;;;;5.23;2.70;;;2.60;99.90;;;;;;5041871;28;20519;-69
2023/02/27 06:07:52;;;;;;;5.07;3.23;;;2.60;99.90;;;;;;5045226;28;20491;-69
2023/02/27 06:10:19;;;;;;;3.40;3.10;;;2.60;99.90;;;;;;5053157;28;20517;-68
2023/02/27 06:12:44;;;;;;;3.13;2.83;;;2.50;99.90;;;;;;5051470;28;20755;-70
2023/02/27 06:15:11;;;;;;;2.70;2.50;;;2.60;99.90;;;;;;5050721;28;21165;-68
2023/02/27 06:17:37;;;;;;;3.00;2.70;;;2.60;99.90;;;;;;5052495;28;20612;-70
2023/02/27 06:20:04;;;;;;;7.33;3.10;;;2.50;99.90;;;;;;5045897;28;20800;-69
2023/02/27 06:22:29;;;;;;;4.07;3.00;;;2.50;99.90;;;;;;5049215;28;20491;-69
2023/02/27 06:24:55;;;;;;;8.17;3.17;;;2.50;99.90;;;;;;5044268;28;20476;-69
2023/02/27 06:27:20;;;;;;;5.80;3.20;;;2.50;99.90;;;;;;5050788;28;20212;-69
2023/02/27 06:29:46;;;;;;;3.83;2.70;;;2.40;99.90;;;;;;5045858;28;20187;-69
2023/02/27 06:32:11;;;;;;;8.33;3.07;;;2.50;99.90;;;;;;5044137;28;20352;-68
2023/02/27 06:34:37;;;;;;;4.43;2.77;;;2.50;99.90;;;;;;5043797;28;20187;-69
2023/02/27 06:37:03;;;;;;;4.63;3.00;;;2.50;99.90;;;;;;5045843;28;20239;-70
2023/02/27 06:39:28;;;;;;;6.37;3.33;;;2.60;99.90;;;;;;5040870;28;20188;-69
2023/02/27 06:41:54;;;;;;;3.53;3.00;;;2.60;99.90;;;;;;5039803;28;20188;-69
2023/02/27 06:44:20;;;;;;;3.40;2.80;;;2.60;99.90;;;;;;5044111;28;20194;-68
2023/02/27 06:46:45;;;;;;;4.03;2.77;;;2.60;99.90;;;;;;5041505;28;20233;-69
2023/02/27 06:49:11;;;;;;;5.90;2.83;;;2.60;99.90;;;;;;5049042;28;20821;-68
2023/02/27 06:51:36;;;;;;;4.73;3.37;;;2.60;99.90;;;;;;5045286;28;20210;-68
2023/02/27 06:54:02;;;;;;;4.97;2.70;;;2.60;99.90;;;;;;5045284;28;20198;-68
2023/02/27 06:56:28;;;;;;;3.67;2.90;;;2.60;99.90;;;;;;5050400;28;20207;-68
2023/02/27 06:58:56;;;;;;;3.77;3.27;;;2.60;99.90;;;;;;5049329;28;20332;-70
2023/02/27 07:01:23;;;;;;;3.77;2.90;;;2.60;99.90;;;;;;5050091;28;20242;-70
2023/02/27 07:03:49;;;;;;;4.10;3.50;;;2.50;99.90;;;;;;5051271;28;20988;-69
2023/02/27 07:06:14;;;;;;;10.00;3.33;;;2.50;99.90;;;;;;5045263;28;20453;-69
2023/02/27 07:08:40;;;;;;;4.70;3.50;;;2.50;99.90;;;;;;5046476;28;20179;-69
2023/02/27 07:11:05;;;;;;;5.83;3.17;;;2.60;99.90;;;;;;5042750;28;20209;-69
2023/02/27 07:13:31;;;;;;;3.60;2.97;;;2.60;99.90;;;;;;5050044;28;20222;-70
2023/02/27 07:15:56;;;;;;;4.33;3.27;;;2.70;99.90;;;;;;5049015;28;20179;-70
2023/02/27 07:18:23;;;;;;;3.93;3.20;;;2.60;99.90;;;;;;5049577;28;20184;-70
2023/02/27 07:20:50;;;;;;;3.57;3.10;;;2.60;99.90;;;;;;5046233;28;20175;-73
2023/02/27 07:23:16;;;;;;;4.13;3.40;;;2.60;99.90;;;;;;5048002;28;20926;-69
2023/02/27 07:25:42;;;;;;;4.27;3.70;;;2.60;99.90;;;;;;5052342;28;20527;-69
2023/02/27 07:28:07;;;;;;;4.90;2.90;;;2.60;99.90;;;;;;5049203;28;20483;-69
2023/02/27 07:30:33;;;;;;;4.40;3.30;;;2.70;99.90;;;;;;5035509;28;20253;-71
2023/02/27 07:32:59;;;;;;;6.03;3.07;;;2.70;99.90;;;;;;5046537;28;20215;-69
2023/02/27 07:35:24;;;;;;;4.60;3.10;;;2.70;99.90;;;;;;5049795;28;20258;-73
2023/02/27 07:37:50;;;;;;;4.27;3.03;;;2.70;99.90;;;;;;5048255;28;20676;-70
2023/02/27 07:40:16;;;;;;;4.83;3.10;;;2.80;99.90;;;;;;5049874;28;20667;-70
2023/02/27 07:42:42;;;;;;;4.67;3.07;;;2.80;99.90;;;;;;5045819;28;20429;-71
2023/02/27 07:45:08;;;;;;;4.40;3.20;;;2.70;99.90;;;;;;5048979;28;20710;-73
2023/02/27 07:47:34;;;;;;;5.23;3.77;;;2.70;99.90;;;;;;5053443;28;20583;-72
2023/02/27 07:50:00;;;;;;;5.97;3.20;;;2.70;99.90;;;;;;5054076;28;20463;-71
2023/02/27 07:52:26;;;;;;;7.87;3.70;;;2.80;99.90;;;;;;5051187;28;20548;-71
2023/02/27 07:54:51;;;;;;;7.97;3.27;;;2.80;99.90;;;;;;5050717;28;20172;-72
2023/02/27 07:57:17;;;;;;;5.77;3.17;;;2.80;99.90;;;;;;5052506;28;20755;-71
2023/02/27 07:59:43;;;;;;;5.90;3.30;;;2.80;99.90;;;;;;5053860;28;20198;-72
2023/02/27 08:02:11;;;;;;;6.10;3.33;;;2.90;99.90;;;;;;5054779;28;20190;-71
2023/02/27 08:04:36;;;;;;;3.57;3.27;;;2.90;99.90;;;;;;5056497;28;20189;-72
2023/02/27 08:07:02;;;;;;;6.67;3.30;;;2.90;99.90;;;;;;5053138;28;20556;-69
2023/02/27 08:09:29;;;;;;;4.27;3.50;;;2.90;99.80;;;;;;5050093;28;20171;-70
2023/02/27 08:11:55;;;;;;;4.80;3.30;;;2.90;99.90;;;;;;5048732;28;20726;-70
2023/02/27 08:14:21;;;;;;;8.80;5.10;;;3.00;99.80;;;;;;5054886;28;20465;-70
2023/02/27 08:16:46;;;;;;;3.53;3.20;;;2.90;99.50;;;;;;5054323;28;20478;-68
2023/02/27 08:19:13;;;;;;;7.03;3.67;;;3.00;99.60;;;;;;5048734;28;20237;-71
2023/02/27 08:21:39;;;;;;;6.20;3.50;;;3.00;99.70;;;;;;5053306;28;20720;-68
2023/02/27 08:24:05;;;;;;;4.33;3.40;;;3.10;99.60;;;;;;5051124;28;20508;-68
2023/02/27 08:26:30;;;;;;;4.70;3.20;;;3.10;99.40;;;;;;5051658;28;20509;-67
2023/02/27 08:28:56;;;;;;;4.17;3.77;;;3.10;99.40;;;;;;5048565;28;20434;-68
2023/02/27 08:31:22;;;;;;;3.80;3.23;;;3.10;99.40;;;;;;5051356;28;20665;-70
2023/02/27 08:33:48;;;;;;;5.33;3.80;;;3.20;99.60;;;;;;5051821;28;20206;-69
2023/02/27 08:36:14;;;;;;;4.10;3.40;;;3.20;99.80;;;;;;5049268;28;20461;-67
2023/02/27 08:38:39;;;;;;;3.60;3.27;;;3.30;99.00;;;;;;5053412;28;20214;-69
2023/02/27 08:41:05;;;;;;;3.40;3.10;;;3.30;99.10;;;;;;5051674;28;20918;-68
2023/02/27 08:43:30;;;;;;;4.03;3.10;;;3.40;99.10;;;;;;5055159;28;20183;-67
2023/02/27 08:45:56;;;;;;;5.33;3.23;;;3.40;99.00;;;;;;5045938;28;20187;-68
2023/02/27 08:48:23;;;;;;;4.33;3.40;;;3.50;99.00;;;;;;5056613;28;20201;-68
2023/02/27 08:50:49;;;;;;;3.80;3.10;;;3.50;98.90;;;;;;5048162;28;20446;-70
2023/02/27 08:53:15;;;;;;;7.40;3.37;;;3.40;98.50;;;;;;5050110;28;20469;-72
2023/02/27 08:55:41;;;;;;;3.80;2.93;;;3.50;98.80;;;;;;5040733;28;20182;-68
2023/02/27 08:58:07;;;;;;;8.50;3.50;;;3.50;99.00;;;;;;5044431;28;20183;-72
2023/02/27 09:00:32;;;;;;;4.20;3.37;;;3.60;99.30;;;;;;5048338;28;20515;-69
2023/02/27 09:03:00;;;;;;;5.10;3.63;;;3.70;98.90;;;;;;5051501;28;20453;-71
2023/02/27 09:05:26;;;;;;;4.20;3.17;;;3.70;98.70;;;;;;5052818;28;20677;-70
2023/02/27 09:07:51;;;;;;;8.20;3.47;;;3.70;98.80;;;;;;5049443;28;22433;-71
2023/02/27 09:10:17;;;;;;;4.77;3.53;;;3.80;98.70;;;;;;5050381;28;20981;-70
2023/02/27 09:12:43;;;;;;;4.30;3.30;;;3.80;98.50;;;;;;5048431;28;20223;-69
2023/02/27 09:15:10;;;;;;;5.70;3.47;;;3.90;98.50;;;;;;5052491;28;20438;-68
2023/02/27 09:17:36;;;;;;;4.33;3.10;;;4.00;98.10;;;;;;5051177;28;20642;-68
2023/02/27 09:20:03;;;;;;;3.00;2.67;;;4.00;98.00;;;;;;5047292;28;20444;-68
2023/02/27 09:22:29;;;;;;;4.80;3.00;;;4.00;97.50;;;;;;5054745;28;20495;-68
2023/02/27 09:24:54;;;;;;;3.93;3.20;;;4.00;97.40;;;;;;5050166;28;20456;-69
2023/02/27 09:27:22;;;;;;;3.60;2.70;;;4.00;97.40;;;;;;5046687;28;20208;-69
2023/02/27 09:29:54;;;;;;;6.30;3.73;;;4.10;97.50;;;;;;5053103;28;20225;-70
2023/02/27 09:32:22;;;;;;;3.93;3.27;;;4.10;97.60;;;;;;5050395;28;20460;-70
2023/02/27 09:34:48;;;;;;;3.20;2.77;;;4.10;97.50;;;;;;5052266;28;20444;-71
2023/02/27 09:37:14;;;;;;;3.70;3.00;;;4.20;97.10;;;;;;5049399;28;20811;-69
2023/02/27 09:39:40;;;;;;;5.47;2.77;;;4.20;96.70;;;;;;5054353;28;20203;-71
2023/02/27 09:42:15;;;;;;;4.90;2.93;;;4.20;96.40;;;;;;5051207;28;20449;-71
2023/02/27 09:44:48;;;;;;;3.93;3.13;;;4.20;96.00;;;;;;5055220;28;20447;-71
2023/02/27 09:47:36;;;;;;;4.13;3.00;;;4.30;95.80;;;;;;5051108;28;20488;-71
2023/02/27 09:50:28;;;;;;;5.10;3.80;;;4.30;96.00;;;;;;5066652;28;20438;-67
2023/02/27 09:52:53;;;;;;;6.13;3.70;;;4.40;95.80;;;;;;5050419;28;20469;-69
2023/02/27 09:55:21;;;;;;;11.50;3.53;;;4.40;95.80;;;;;;5048972;28;20905;-68
2023/02/27 09:57:56;;;;;;;5.17;3.27;;;4.40;95.70;;;;;;5048607;28;20198;-71
2023/02/27 10:00:34;;;;;;;4.10;3.33;;;4.50;95.60;;;;;;5055126;28;20570;-72
2023/02/27 10:03:27;;;;;;;3.60;3.10;;;4.50;95.40;;;;;;5051929;28;20965;-71
2023/02/27 10:06:23;;;;;;;3.27;2.90;;;4.60;95.00;;;;;;5052191;28;20441;-71
2023/02/27 10:09:01;;;;;;;4.20;3.20;;;4.60;95.20;;;;;;5051912;28;20454;-71
2023/02/27 10:11:56;;;;;;;4.00;2.70;;;4.60;95.20;;;;;;5054910;28;21340;-69
2023/02/27 10:14:36;;;;;;;6.10;2.90;;;4.70;94.90;;;;;;5051950;28;20533;-71
2023/02/27 10:17:05;;;;;;;4.20;3.30;;;4.70;94.50;;;;;;5047739;28;20477;-70
2023/02/27 10:19:34;;;;;;;5.40;3.47;;;4.70;94.40;;;;;;5053241;28;20588;-69
2023/02/27 10:22:04;;;;;;;3.67;2.50;;;4.80;94.30;;;;;;5050950;28;20441;-69
2023/02/27 10:24:41;;;;;;;2.80;2.50;;;4.80;94.40;;;;;;5054131;28;20481;-69
2023/02/27 10:27:14;;;;;;;3.13;2.87;;;4.80;94.20;;;;;;5050943;28;20506;-71
2023/02/27 10:29:40;;;;;;;5.17;3.70;;;4.80;93.90;;;;;;5052679;28;20472;-71
2023/02/27 10:32:15;;;;;;;3.27;2.90;;;4.90;93.80;;;;;;5053755;28;20477;-71
2023/02/27 10:34:43;;;;;;;3.57;3.00;;;4.90;93.80;;;;;;5053437;28;20525;-70
2023/02/27 10:37:13;;;;;;;3.40;2.80;;;4.90;93.50;;;;;;5046885;28;20468;-70
2023/02/27 10:39:48;;;;;;;4.27;2.80;;;5.00;93.20;;;;;;5049790;28;20439;-71
2023/02/27 10:42:16;;;;;;;7.00;3.20;;;5.10;93.20;;;;;;5049947;28;20448;-71
2023/02/27 10:44:41;;;;;;;3.90;2.90;;;5.10;93.00;;;;;;5048819;28;20475;-73
2023/02/27 10:47:14;;;;;;;3.20;2.90;;;5.10;92.80;;;;;;5046613;28;20564;-75
2023/02/27 10:49:41;;;;;;;5.40;3.20;;;5.10;93.30;;;;;;5051319;28;20218;-74
2023/02/27 10:52:15;;;;;;;9.00;2.80;;;5.20;92.80;;;;;;5062480;28;20551;-71
2023/02/27 10:54:42;;;;;;;3.83;3.00;;;5.20;92.70;;;;;;5050555;28;20443;-72
2023/02/27 10:57:19;;;;;;;4.80;3.37;;;5.20;93.10;;;;;;5048727;28;20516;-69
2023/02/27 10:59:52;;;;;;;4.13;2.90;;;5.20;92.50;;;;;;5050286;28;20444;-69
2023/02/27 11:02:22;;;;;;;9.33;6.20;;;5.30;92.50;;;;;;5051272;28;20529;-69
2023/02/27 11:04:52;;;;;;;5.57;3.10;;;5.30;92.50;;;;;;5053144;28;21253;-70
2023/02/27 11:07:29;;;;;;;3.50;3.20;;;5.40;92.60;;;;;;5046458;28;20527;-70
2023/02/27 11:10:10;;;;;;;4.53;3.57;;;5.50;92.70;;;;;;5050754;28;21131;-69
2023/02/27 11:12:36;;;;;;;4.40;3.40;;;5.50;92.80;;;;;;5050279;28;20480;-70
2023/02/27 11:15:21;;;;;;;3.77;2.87;;;5.50;92.70;;;;;;5047940;28;20442;-71
2023/02/27 11:17:47;;;;;;;6.97;3.20;;;5.60;92.50;;;;;;5048979;28;20727;-69
2023/02/27 11:20:39;;;;;;;3.73;3.30;;;5.60;92.50;;;;;;5042251;28;20433;-69
2023/02/27 11:23:32;;;;;;;5.20;3.40;;;5.60;92.20;;;;;;5049406;28;20262;-68
2023/02/27 11:26:10;;;;;;;3.30;2.73;;;5.70;91.70;;;;;;5046750;28;20532;-67
2023/02/27 11:28:35;;;;;;;3.13;2.83;;;5.70;91.40;;;;;;5048841;28;20441;-68
2023/02/27 11:31:05;;;;;;;5.63;3.10;;;5.80;91.40;;;;;;5047128;28;20437;-70
2023/02/27 11:33:52;;;;;;;7.00;4.50;;;5.80;91.60;;;;;;5032503;28;20203;-69
2023/02/27 11:36:17;;;;;;;4.70;3.60;;;5.80;91.90;;;;;;5050353;28;20483;-69
2023/02/27 11:38:54;;;;;;;4.80;3.23;;;5.80;91.70;;;;;;5051563;28;20438;-68
2023/02/27 11:41:29;;;;;;;5.57;3.97;;;5.90;91.70;;;;;;5047553;28;20436;-70
2023/02/27 11:43:57;;;;;;;3.63;3.20;;;5.90;91.30;;;;;;5051858;28;21137;-66
2023/02/27 11:46:24;;;;;;;3.20;2.90;;;6.00;91.20;;;;;;5049166;28;20484;-67
2023/02/27 11:49:20;;;;;;;6.50;3.47;;;6.00;91.10;;;;;;5045377;28;20455;-70
2023/02/27 11:52:07;;;;;;;3.13;2.83;;;6.10;91.20;;;;;;5045173;28;20533;-70
2023/02/27 11:54:38;;;;;;;4.40;3.30;;;6.10;90.80;;;;;;5047658;28;20442;-70
2023/02/27 11:57:03;;;;;;;3.40;3.10;;;6.10;90.80;;;;;;5050686;28;20511;-70
2023/02/27 11:59:57;;;;;;;4.17;3.50;;;6.20;90.90;;;;;;5052326;28;20437;-72
2023/02/27 12:02:54;;;;;;;3.57;3.20;;;6.20;90.40;;;;;;5054684;28;20290;-75
2023/02/27 12:05:36;;;;;;;4.70;3.00;;;6.30;90.60;;;;;;5050132;28;20905;-70
2023/02/27 12:08:12;;;;;;;4.90;2.93;;;6.40;90.10;;;;;;5051410;28;20468;-70
2023/02/27 12:11:04;;;;;;;3.90;3.33;;;6.40;90.00;;;;;;5047236;28;21227;-72
2023/02/27 12:13:35;;;;;;;3.97;3.27;;;6.80;91.70;;;;;;5048735;28;20472;-71
2023/02/27 12:16:12;;;;;;;6.47;3.73;;;8.40;92.20;;;;;;5049158;28;21050;-71
2023/02/27 12:18:44;;;;;;;4.67;2.93;;;10.50;89.10;;;;;;5048253;28;20774;-71
2023/02/27 12:21:14;;;;;;;4.50;3.60;;;12.40;83.90;;;;;;5048724;28;20429;-72
2023/02/27 12:23:48;;;;;;;3.60;2.97;;;14.00;76.60;;;;;;5052616;28;20456;-70
2023/02/27 12:26:25;;;;;;;3.90;3.30;;;15.20;69.90;;;;;;5046437;28;21246;-69
2023/02/27 12:29:16;;;;;;;4.00;2.60;;;16.10;59.60;;;;;;5053744;28;20470;-68
2023/02/27 12:32:10;;;;;;;3.40;2.60;;;17.10;56.70;;;;;;5020918;28;20437;-68
2023/02/27 12:34:36;;;;;;;3.30;2.77;;;18.00;52.90;;;;;;5040611;28;20536;-68
2023/02/27 12:37:15;;;;;;;3.77;2.73;;;18.60;49.20;;;;;;5050221;28;20529;-70
2023/02/27 12:39:43;;;;;;;3.93;2.87;;;18.80;46.10;;;;;;5048886;28;20191;-70
2023/02/27 12:42:29;;;;;;;3.67;3.10;;;19.00;44.80;;;;;;5048051;28;20437;-70
2023/02/27 12:45:17;;;;;;;5.77;3.23;;;19.50;44.00;;;;;;5052148;28;20433;-69
2023/02/27 12:47:59;;;;;;;3.73;3.33;;;20.10;42.70;;;;;;5046297;28;20983;-70
2023/02/27 12:50:27;;;;;;;6.70;2.70;;;20.30;40.50;;;;;;5049177;28;20520;-68
2023/02/27 12:53:15;;;;;;;3.00;2.70;;;20.40;39.20;;;;;;5036814;28;20675;-69
2023/02/27 12:55:46;;;;;;;3.30;2.73;;;20.60;37.90;;;;;;5047356;28;20876;-69
2023/02/27 12:58:30;;;;;;;4.90;2.77;;;21.10;37.70;;;;;;5047510;28;20515;-70
2023/02/27 13:01:13;;;;;;;5.70;2.77;;;21.60;37.20;;;;;;5049310;28;20814;-70
2023/02/27 13:03:56;;;;;;;3.67;3.00;;;22.10;36.40;;;;;;5051290;28;21492;-69
2023/02/27 13:06:51;;;;;;;3.80;3.10;;;22.20;35.20;;;;;;5056312;28;20537;-68
2023/02/27 13:09:47;;;;;;;3.40;3.10;;;21.90;33.10;;;;;;5049991;28;20502;-69
2023/02/27 13:12:28;;;;;;;3.33;2.67;;;22.00;32.10;;;;;;5053136;28;20506;-68
2023/02/27 13:15:03;;;;;;;5.50;3.10;;;21.00;31.90;;;;;;5047130;28;20429;-68
2023/02/27 13:17:41;;;;;;;3.37;3.03;;;20.70;32.70;;;;;;5043230;28;20489;-69
2023/02/27 13:20:25;;;;;;;3.10;2.80;;;21.00;33.30;;;;;;5047102;28;20430;-69
2023/02/27 13:22:56;;;;;;;3.20;2.90;;;21.40;32.50;;;;;;5046891;28;20445;-68